Nissho Maru — JD2650 — position and weather

sailwx.info

Track history (hours):
 
Tides and Currents Weather Stations Pressure Air Temp Water Temp Dewpoint Dewpoint Depression Visibility Wind Speed Wind Dir Waves Ship Positions

Nissho Maru

Last reported at 2016-Jul-01 07:33 UTC. Time now 2016-Jul-01 09:59 UTC.
Position N 34°37' E 135°02'.

Length 75 m.

Type: Cargo ship. MMSI: 431000572.

Date/timePositionNaut miles runAvg speedWind from/ knotsBaromVisibWave heightAir tempDewpointWater temp
2016-Jul-01 07:33N 34°37' E 135°02'1212.2
2016-Jul-01 06:33N 34°38' E 135°17'4 4.5
2016-Jul-01 05:33N 34°42' E 135°18'0 0.3
2016-Jul-01 04:32N 34°42' E 135°18'0 0.0
2016-Jul-01 03:32N 34°42' E 135°18'0 0.0
2016-Jul-01 02:26N 34°42' E 135°18'0 0.0
2016-Jul-01 01:32N 34°42' E 135°18'0 0.0
2016-Jul-01 00:32N 34°42' E 135°18'0 0.0
2016-Jun-30 23:33N 34°42' E 135°18'1 1.2
2016-Jun-30 22:28N 34°41' E 135°19'0 0.0
2016-Jun-30 21:28N 34°41' E 135°19'0 0.0
2016-Jun-30 20:28N 34°41' E 135°19'0 0.0
2016-Jun-30 19:28N 34°41' E 135°19'0 0.0
2016-Jun-30 18:28N 34°41' E 135°19'0 0.0
2016-Jun-30 17:28N 34°41' E 135°19'0 0.0
2016-Jun-30 16:28N 34°41' E 135°19'0 0.0
2016-Jun-30 15:28N 34°41' E 135°19'0 0.0
2016-Jun-30 14:28N 34°41' E 135°19'0 0.0
2016-Jun-30 13:22N 34°41' E 135°19'0 0.0
2016-Jun-30 12:10N 34°41' E 135°19'0 0.0
2016-Jun-30 11:28N 34°41' E 135°19'0 0.0
2016-Jun-30 10:28N 34°41' E 135°19'0 0.0
2016-Jun-30 09:28N 34°41' E 135°19'0 0.0
2016-Jun-30 08:28N 34°41' E 135°19'0 0.0
2016-Jun-30 07:28N 34°41' E 135°19'0 0.0
2016-Jun-30 06:28N 34°41' E 135°19'0 0.0
2016-Jun-30 05:28N 34°41' E 135°19'0 0.0
2016-Jun-30 04:16N 34°41' E 135°19'0 0.0
2016-Jun-30 03:28N 34°41' E 135°19'6 6.0
2016-Jun-30 02:33N 34°36' E 135°17'30 9.9
2016-Jun-29 23:34N 34°10' E 134°60'233 9.6
2016-Jun-28 23:18N 34°44' E 139°39'911.5
2016-Jun-28 22:33N 34°48' E 139°48'1311.4
2016-Jun-28 21:26N 34°54' E 140°02'1011.4
2016-Jun-28 20:33N 35°00' E 140°12'2211.1
2016-Jun-28 18:33N 35°16' E 140°31'1211.6
2016-Jun-28 17:32N 35°25' E 140°40'  
Track history (hours):
 
Tides and Currents Weather Stations Pressure Air Temp Water Temp Dewpoint Dewpoint Depression Visibility Wind Speed Wind Dir Waves Ship Positions

Nissho Maru

Last reported at 2016-Jul-01 07:33 UTC. Time now 2016-Jul-01 09:59 UTC.
Position N 34°37' E 135°02'.

Length 75 m.

Type: Cargo ship. MMSI: 431000572.

Date/timePositionNaut miles runAvg speedWind from/ knotsBaromVisibWave heightAir tempDewpointWater temp
2016-Jul-01 07:33N 34°37' E 135°02'1212.2
2016-Jul-01 06:33N 34°38' E 135°17'4 4.5
2016-Jul-01 05:33N 34°42' E 135°18'0 0.3
2016-Jul-01 04:32N 34°42' E 135°18'0 0.0
2016-Jul-01 03:32N 34°42' E 135°18'0 0.0
2016-Jul-01 02:26N 34°42' E 135°18'0 0.0
2016-Jul-01 01:32N 34°42' E 135°18'0 0.0
2016-Jul-01 00:32N 34°42' E 135°18'0 0.0
2016-Jun-30 23:33N 34°42' E 135°18'1 1.2
2016-Jun-30 22:28N 34°41' E 135°19'0 0.0
2016-Jun-30 21:28N 34°41' E 135°19'0 0.0
2016-Jun-30 20:28N 34°41' E 135°19'0 0.0
2016-Jun-30 19:28N 34°41' E 135°19'0 0.0
2016-Jun-30 18:28N 34°41' E 135°19'0 0.0
2016-Jun-30 17:28N 34°41' E 135°19'0 0.0
2016-Jun-30 16:28N 34°41' E 135°19'0 0.0
2016-Jun-30 15:28N 34°41' E 135°19'0 0.0
2016-Jun-30 14:28N 34°41' E 135°19'0 0.0
2016-Jun-30 13:22N 34°41' E 135°19'0 0.0
2016-Jun-30 12:10N 34°41' E 135°19'0 0.0
2016-Jun-30 11:28N 34°41' E 135°19'0 0.0
2016-Jun-30 10:28N 34°41' E 135°19'0 0.0
2016-Jun-30 09:28N 34°41' E 135°19'0 0.0
2016-Jun-30 08:28N 34°41' E 135°19'0 0.0
2016-Jun-30 07:28N 34°41' E 135°19'0 0.0
2016-Jun-30 06:28N 34°41' E 135°19'0 0.0
2016-Jun-30 05:28N 34°41' E 135°19'0 0.0
2016-Jun-30 04:16N 34°41' E 135°19'0 0.0
2016-Jun-30 03:28N 34°41' E 135°19'6 6.0
2016-Jun-30 02:33N 34°36' E 135°17'30 9.9
2016-Jun-29 23:34N 34°10' E 134°60'233 9.6
2016-Jun-28 23:18N 34°44' E 139°39'911.5
2016-Jun-28 22:33N 34°48' E 139°48'1311.4
2016-Jun-28 21:26N 34°54' E 140°02'1011.4
2016-Jun-28 20:33N 35°00' E 140°12'2211.1
2016-Jun-28 18:33N 35°16' E 140°31'1211.6
2016-Jun-28 17:32N 35°25' E 140°40'  

Dump ship's entire track history